createdAt,value
2022-12-16T08:56:46.402Z,42.17
2022-12-16T09:16:41.169Z,42.97
2022-12-16T09:19:28.652Z,41.72
2022-12-16T09:22:14.520Z,41.95
2022-12-16T09:25:00.420Z,39.05
2022-12-16T09:27:46.184Z,41.80
2022-12-16T09:30:42.880Z,38.42
2022-12-16T09:33:28.592Z,42.78
2022-12-16T09:36:14.507Z,42.95
2022-12-16T09:39:17.584Z,42.45
2022-12-16T09:42:21.951Z,45.47
2022-12-16T09:46:18.390Z,43.38
2022-12-16T09:49:42.663Z,43.53
2022-12-16T09:52:37.511Z,37.88
2022-12-16T09:55:45.414Z,40.30
2022-12-16T09:58:32.117Z,40.38
2022-12-16T10:01:19.332Z,41.05
2022-12-16T10:04:05.949Z,37.92
2022-12-16T10:07:11.055Z,37.35
2022-12-16T10:11:07.302Z,35.92
2022-12-16T10:14:39.046Z,37.80
2022-12-16T10:17:44.325Z,32.30
2022-12-16T10:21:07.467Z,29.30
2022-12-16T10:25:24.618Z,30.63
2022-12-16T10:28:32.985Z,27.35
2022-12-16T10:31:31.582Z,30.50
2022-12-16T10:34:17.931Z,29.42
2022-12-16T10:37:12.414Z,29.45
2022-12-16T10:40:14.306Z,29.20
2022-12-16T10:43:22.867Z,32.67
2022-12-16T10:46:12.884Z,27.52
2022-12-16T10:48:58.765Z,25.85
2022-12-16T10:51:48.352Z,23.83
2022-12-16T10:54:40.404Z,23.17
2022-12-16T10:58:09.505Z,27.38
2022-12-16T11:01:30.663Z,26.85
2022-12-16T11:04:17.471Z,22.05
2022-12-16T11:07:03.823Z,22.83
2022-12-16T11:09:52.564Z,21.35
2022-12-16T11:12:50.426Z,22.45
2022-12-16T11:15:51.208Z,20.98
2022-12-16T11:18:40.910Z,21.48
2022-12-16T11:21:39.988Z,17.17
2022-12-16T11:24:38.408Z,17.83
2022-12-16T11:27:44.149Z,17.83
2022-12-16T11:30:40.986Z,18.42
2022-12-16T11:33:43.058Z,18.40
2022-12-16T11:36:43.004Z,15.95
2022-12-16T11:39:41.082Z,17.55
2022-12-16T11:42:40.631Z,19.95
2022-12-16T11:45:37.897Z,16.98
2022-12-16T11:49:25.230Z,20.08
2022-12-16T11:52:40.459Z,17.77
2022-12-16T11:59:24.331Z,19.55
2022-12-16T12:02:21.070Z,15.05
2022-12-16T12:05:09.530Z,15.23
2022-12-16T12:08:44.928Z,13.65
2022-12-16T12:11:53.323Z,14.77
2022-12-16T12:15:11.457Z,14.23
2022-12-16T12:18:35.937Z,15.57
2022-12-16T12:21:51.469Z,13.13
2022-12-16T12:24:59.151Z,12.48
2022-12-16T12:28:33.260Z,14.07
2022-12-16T12:32:01.739Z,14.85
2022-12-16T12:35:47.833Z,12.93
2022-12-16T12:39:39.273Z,13.75
2022-12-16T12:42:59.413Z,12.10
2022-12-16T12:46:29.651Z,13.48
2022-12-16T12:49:58.012Z,13.90
2022-12-16T12:53:17.940Z,11.80
2022-12-16T12:56:51.627Z,17.85
2022-12-16T13:00:25.176Z,11.55
2022-12-16T13:03:58.420Z,14.77
2022-12-16T13:06:45.721Z,16.00
2022-12-16T13:09:57.143Z,15.75
2022-12-16T13:12:53.470Z,16.60
2022-12-16T13:15:56.186Z,16.52
2022-12-16T13:18:52.273Z,14.73
2022-12-16T13:21:56.804Z,14.98
2022-12-16T13:24:59.783Z,20.92
2022-12-16T13:28:08.992Z,22.88
2022-12-16T13:30:55.260Z,18.13
2022-12-16T13:33:50.331Z,21.88
2022-12-16T13:36:38.255Z,19.88
2022-12-16T13:39:49.382Z,23.35
2022-12-16T13:43:11.977Z,25.10
2022-12-16T13:46:37.387Z,21.88
2022-12-16T13:50:07.996Z,21.20
2022-12-16T13:53:16.828Z,17.80
2022-12-16T13:56:18.771Z,19.58
2022-12-16T13:59:20.345Z,18.25
2022-12-16T14:02:06.375Z,15.90
2022-12-16T14:05:03.342Z,16.52
2022-12-16T14:07:57.543Z,16.20
2022-12-16T14:11:01.115Z,20.00
2022-12-16T14:14:19.433Z,15.63
2022-12-16T14:17:24.904Z,13.95
2022-12-16T14:20:46.668Z,15.93
2022-12-16T14:24:03.821Z,16.75
2022-12-16T14:26:53.793Z,15.40
2022-12-16T14:29:48.529Z,19.13
2022-12-16T14:32:52.549Z,14.90
2022-12-16T14:35:45.649Z,19.77
2022-12-16T14:38:49.918Z,17.50
2022-12-16T14:41:43.936Z,14.55
2022-12-16T14:44:43.367Z,20.15
2022-12-16T14:47:40.083Z,14.38
2022-12-16T14:50:49.237Z,16.83
2022-12-16T14:53:40.618Z,19.60
2022-12-16T14:56:49.884Z,21.33
2022-12-16T14:59:38.738Z,17.83
2022-12-16T15:02:49.963Z,17.13
2022-12-16T15:05:38.260Z,20.30
2022-12-16T15:08:29.129Z,22.10
2022-12-16T15:11:15.434Z,23.60
2022-12-16T15:14:03.896Z,23.38
2022-12-16T15:16:53.986Z,24.27
2022-12-16T15:19:42.979Z,23.08
2022-12-16T15:22:35.976Z,27.50
2022-12-16T15:25:22.879Z,21.80
2022-12-16T15:28:16.298Z,25.17
2022-12-16T15:31:06.476Z,21.15
2022-12-16T15:33:58.154Z,24.20
2022-12-16T15:36:55.359Z,22.83
2022-12-16T15:39:55.819Z,19.40
2022-12-16T15:42:51.223Z,21.17
2022-12-16T15:45:51.371Z,19.38
2022-12-16T15:48:49.794Z,20.17
2022-12-16T15:52:00.985Z,18.05
2022-12-16T15:54:46.787Z,17.33
2022-12-16T15:57:53.462Z,17.95
2022-12-16T16:00:50.287Z,16.60
2022-12-16T16:03:48.359Z,21.52
2022-12-16T16:06:46.005Z,18.30
2022-12-16T16:09:41.656Z,20.25
2022-12-16T16:12:31.585Z,19.08
2022-12-16T16:15:17.391Z,21.77
2022-12-16T16:18:05.800Z,20.67
2022-12-16T16:20:51.803Z,21.15
2022-12-16T16:23:37.690Z,26.00
2022-12-16T16:26:23.677Z,25.65
2022-12-16T16:29:09.455Z,24.67
2022-12-16T16:31:59.397Z,26.42
2022-12-16T16:34:49.375Z,28.25
2022-12-16T16:37:39.875Z,28.58
2022-12-16T16:40:57.995Z,24.65
2022-12-16T16:43:45.255Z,28.02
2022-12-16T16:47:00.330Z,29.02
2022-12-16T16:49:58.277Z,25.90
2022-12-16T16:52:46.770Z,27.63
2022-12-16T16:55:43.222Z,26.73
2022-12-16T16:58:52.741Z,26.35
2022-12-16T17:01:38.728Z,25.95
2022-12-16T17:04:24.805Z,27.77
2022-12-16T17:07:10.587Z,34.85
2022-12-16T17:09:57.193Z,30.00
2022-12-16T17:12:49.664Z,32.97
2022-12-16T17:15:48.169Z,30.85
2022-12-16T17:18:36.496Z,25.45
2022-12-16T17:21:23.211Z,26.42
2022-12-16T17:24:09.683Z,23.98
2022-12-16T17:27:04.088Z,22.58
2022-12-16T17:29:50.033Z,19.02
2022-12-16T17:32:36.108Z,20.70
2022-12-16T17:35:22.160Z,21.02
2022-12-16T17:38:07.930Z,20.30
2022-12-16T17:40:54.134Z,20.58
2022-12-16T17:43:39.982Z,23.48
2022-12-16T17:46:30.340Z,22.13
2022-12-16T17:49:18.261Z,36.03
2022-12-16T17:52:04.203Z,37.58
2022-12-16T17:54:50.231Z,31.45
2022-12-16T17:57:36.805Z,29.20
2022-12-16T18:00:23.800Z,28.95
2022-12-16T18:03:09.814Z,28.60
2022-12-16T18:05:56.257Z,21.88
2022-12-16T18:08:42.123Z,23.13
2022-12-16T18:11:28.180Z,24.88
2022-12-16T18:14:15.074Z,27.80
2022-12-16T18:17:00.925Z,29.50
2022-12-16T18:19:46.873Z,30.45
2022-12-16T18:22:35.876Z,27.85
2022-12-16T18:25:21.756Z,28.20
2022-12-16T18:28:07.558Z,32.47
2022-12-16T18:30:55.449Z,28.10
2022-12-16T18:33:41.472Z,30.95
2022-12-16T18:36:27.315Z,31.48
2022-12-16T18:39:13.246Z,34.90
2022-12-16T18:42:04.964Z,28.55
2022-12-16T18:44:56.175Z,30.08
2022-12-16T18:47:45.367Z,34.55
2022-12-16T18:50:37.293Z,33.67
2022-12-16T18:53:24.786Z,35.13
2022-12-16T18:56:27.368Z,35.00
2022-12-16T18:59:14.016Z,34.35
2022-12-16T19:01:59.962Z,31.75
2022-12-16T19:05:05.722Z,28.38
